sensor_id;sensor_type;location;lat;lon;timestamp;temperature;humidity
3190;DHT22;1606;51.946;10.558;2023-01-01T00:01:53;18.10;95.00
3190;DHT22;1606;51.946;10.558;2023-01-01T00:04:21;18.00;94.90
3190;DHT22;1606;51.946;10.558;2023-01-01T00:06:50;18.10;94.60
3190;DHT22;1606;51.946;10.558;2023-01-01T00:09:17;18.10;94.50
3190;DHT22;1606;51.946;10.558;2023-01-01T00:12:03;18.00;94.70
3190;DHT22;1606;51.946;10.558;2023-01-01T00:14:31;17.70;94.80
3190;DHT22;1606;51.946;10.558;2023-01-01T00:16:59;17.60;95.20
3190;DHT22;1606;51.946;10.558;2023-01-01T00:19:27;17.70;95.10
3190;DHT22;1606;51.946;10.558;2023-01-01T00:21:56;17.80;95.00
3190;DHT22;1606;51.946;10.558;2023-01-01T00:24:31;17.70;94.70
3190;DHT22;1606;51.946;10.558;2023-01-01T00:26:58;17.70;94.90
3190;DHT22;1606;51.946;10.558;2023-01-01T00:29:26;17.80;95.00
3190;DHT22;1606;51.946;10.558;2023-01-01T00:31:54;17.80;94.80
3190;DHT22;1606;51.946;10.558;2023-01-01T00:34:22;17.80;94.50
3190;DHT22;1606;51.946;10.558;2023-01-01T00:36:50;17.80;94.70
3190;DHT22;1606;51.946;10.558;2023-01-01T00:39:19;17.90;94.60
3190;DHT22;1606;51.946;10.558;2023-01-01T00:41:47;18.00;94.50
3190;DHT22;1606;51.946;10.558;2023-01-01T00:44:14;17.80;94.70
3190;DHT22;1606;51.946;10.558;2023-01-01T00:46:42;17.70;94.70
3190;DHT22;1606;51.946;10.558;2023-01-01T00:49:10;17.80;94.60
3190;DHT22;1606;51.946;10.558;2023-01-01T00:51:38;17.90;94.50
3190;DHT22;1606;51.946;10.558;2023-01-01T00:54:05;17.80;94.60
3190;DHT22;1606;51.946;10.558;2023-01-01T00:56:34;17.90;94.30
3190;DHT22;1606;51.946;10.558;2023-01-01T00:59:02;18.00;94.40
3190;DHT22;1606;51.946;10.558;2023-01-01T01:01:30;17.90;94.20
3190;DHT22;1606;51.946;10.558;2023-01-01T01:04:01;17.90;94.40
3190;DHT22;1606;51.946;10.558;2023-01-01T01:06:29;17.90;94.30
3190;DHT22;1606;51.946;10.558;2023-01-01T01:08:56;17.90;94.50
3190;DHT22;1606;51.946;10.558;2023-01-01T01:11:25;17.90;94.50
3190;DHT22;1606;51.946;10.558;2023-01-01T01:13:56;18.00;94.60
3190;DHT22;1606;51.946;10.558;2023-01-01T01:16:26;18.00;94.50
3190;DHT22;1606;51.946;10.558;2023-01-01T01:18:56;17.90;94.50
3190;DHT22;1606;51.946;10.558;2023-01-01T01:21:27;18.00;94.70
3190;DHT22;1606;51.946;10.558;2023-01-01T01:23:56;18.10;94.50
3190;DHT22;1606;51.946;10.558;2023-01-01T01:26:26;18.00;94.30
3190;DHT22;1606;51.946;10.558;2023-01-01T01:28:55;17.90;94.60
3190;DHT22;1606;51.946;10.558;2023-01-01T01:31:26;18.00;94.30
3190;DHT22;1606;51.946;10.558;2023-01-01T01:33:55;18.10;94.40
3190;DHT22;1606;51.946;10.558;2023-01-01T01:38:58;18.00;94.60
3190;DHT22;1606;51.946;10.558;2023-01-01T01:41:27;17.80;94.20
3190;DHT22;1606;51.946;10.558;2023-01-01T01:43:58;17.80;94.40
3190;DHT22;1606;51.946;10.558;2023-01-01T01:46:31;17.70;94.40
3190;DHT22;1606;51.946;10.558;2023-01-01T01:49:02;17.80;94.40
3190;DHT22;1606;51.946;10.558;2023-01-01T01:51:34;17.90;94.20
3190;DHT22;1606;51.946;10.558;2023-01-01T01:54:06;17.90;94.10
3190;DHT22;1606;51.946;10.558;2023-01-01T01:56:39;17.80;94.20
3190;DHT22;1606;51.946;10.558;2023-01-01T01:59:11;17.80;94.00
3190;DHT22;1606;51.946;10.558;2023-01-01T02:01:39;17.70;94.10
3190;DHT22;1606;51.946;10.558;2023-01-01T02:04:08;17.90;93.90
3190;DHT22;1606;51.946;10.558;2023-01-01T02:06:38;17.90;93.80
3190;DHT22;1606;51.946;10.558;2023-01-01T02:09:07;17.80;93.90
3190;DHT22;1606;51.946;10.558;2023-01-01T02:11:36;18.00;93.80
3190;DHT22;1606;51.946;10.558;2023-01-01T02:14:04;17.80;93.90
3190;DHT22;1606;51.946;10.558;2023-01-01T02:16:36;17.80;94.10
3190;DHT22;1606;51.946;10.558;2023-01-01T02:19:12;17.60;94.20
3190;DHT22;1606;51.946;10.558;2023-01-01T02:21:51;17.80;94.00
3190;DHT22;1606;51.946;10.558;2023-01-01T02:24:35;17.80;93.50
3190;DHT22;1606;51.946;10.558;2023-01-01T02:27:12;17.90;93.40
3190;DHT22;1606;51.946;10.558;2023-01-01T02:29:45;17.90;93.40
3190;DHT22;1606;51.946;10.558;2023-01-01T02:32:18;17.80;93.20
3190;DHT22;1606;51.946;10.558;2023-01-01T02:34:51;17.80;93.40
3190;DHT22;1606;51.946;10.558;2023-01-01T02:37:21;17.90;93.30
3190;DHT22;1606;51.946;10.558;2023-01-01T02:39:52;17.90;93.50
3190;DHT22;1606;51.946;10.558;2023-01-01T02:42:26;17.60;93.40
3190;DHT22;1606;51.946;10.558;2023-01-01T02:44:57;17.50;93.60
3190;DHT22;1606;51.946;10.558;2023-01-01T02:47:25;17.50;93.60
3190;DHT22;1606;51.946;10.558;2023-01-01T02:49:58;17.70;93.40
3190;DHT22;1606;51.946;10.558;2023-01-01T02:52:41;17.70;93.30
3190;DHT22;1606;51.946;10.558;2023-01-01T02:55:21;17.90;93.40
3190;DHT22;1606;51.946;10.558;2023-01-01T02:57:52;18.00;93.00
3190;DHT22;1606;51.946;10.558;2023-01-01T03:00:25;17.60;92.80
3190;DHT22;1606;51.946;10.558;2023-01-01T03:03:12;17.60;93.40
3190;DHT22;1606;51.946;10.558;2023-01-01T03:05:50;17.60;93.50
3190;DHT22;1606;51.946;10.558;2023-01-01T03:08:46;17.60;93.30
3190;DHT22;1606;51.946;10.558;2023-01-01T03:11:17;17.50;93.10
3190;DHT22;1606;51.946;10.558;2023-01-01T03:13:50;17.50;93.30
3190;DHT22;1606;51.946;10.558;2023-01-01T03:16:26;17.50;93.30
3190;DHT22;1606;51.946;10.558;2023-01-01T03:18:59;17.70;93.10
3190;DHT22;1606;51.946;10.558;2023-01-01T03:21:41;17.60;92.90
3190;DHT22;1606;51.946;10.558;2023-01-01T03:24:17;17.60;92.90
3190;DHT22;1606;51.946;10.558;2023-01-01T03:26:49;17.60;92.80
3190;DHT22;1606;51.946;10.558;2023-01-01T03:29:18;17.50;92.80
3190;DHT22;1606;51.946;10.558;2023-01-01T03:31:50;17.40;93.10
3190;DHT22;1606;51.946;10.558;2023-01-01T03:34:22;17.60;92.50
3190;DHT22;1606;51.946;10.558;2023-01-01T03:36:55;17.50;92.40
3190;DHT22;1606;51.946;10.558;2023-01-01T03:39:26;17.50;92.50
3190;DHT22;1606;51.946;10.558;2023-01-01T03:42:00;17.60;92.80
3190;DHT22;1606;51.946;10.558;2023-01-01T03:44:35;17.30;92.50
3190;DHT22;1606;51.946;10.558;2023-01-01T03:47:06;17.30;92.60
3190;DHT22;1606;51.946;10.558;2023-01-01T03:49:34;17.40;92.70
3190;DHT22;1606;51.946;10.558;2023-01-01T03:52:17;17.40;92.70
3190;DHT22;1606;51.946;10.558;2023-01-01T03:54:52;17.60;92.40
3190;DHT22;1606;51.946;10.558;2023-01-01T03:57:29;17.70;92.10
3190;DHT22;1606;51.946;10.558;2023-01-01T04:00:04;17.60;92.10
3190;DHT22;1606;51.946;10.558;2023-01-01T04:02:37;17.40;92.20
3190;DHT22;1606;51.946;10.558;2023-01-01T04:05:08;17.50;92.30
3190;DHT22;1606;51.946;10.558;2023-01-01T04:07:37;17.60;91.90
3190;DHT22;1606;51.946;10.558;2023-01-01T04:10:06;17.50;91.90
3190;DHT22;1606;51.946;10.558;2023-01-01T04:12:45;17.50;91.90
3190;DHT22;1606;51.946;10.558;2023-01-01T04:15:13;17.40;91.80
3190;DHT22;1606;51.946;10.558;2023-01-01T04:17:42;17.30;91.80
3190;DHT22;1606;51.946;10.558;2023-01-01T04:20:11;17.40;92.10
3190;DHT22;1606;51.946;10.558;2023-01-01T04:22:39;17.60;92.10
3190;DHT22;1606;51.946;10.558;2023-01-01T04:25:08;17.70;91.70
3190;DHT22;1606;51.946;10.558;2023-01-01T04:27:37;17.80;91.30
3190;DHT22;1606;51.946;10.558;2023-01-01T04:30:06;17.80;91.40
3190;DHT22;1606;51.946;10.558;2023-01-01T04:32:35;17.80;91.40
3190;DHT22;1606;51.946;10.558;2023-01-01T04:35:05;17.70;91.50
3190;DHT22;1606;51.946;10.558;2023-01-01T04:37:34;17.60;91.50
3190;DHT22;1606;51.946;10.558;2023-01-01T04:40:02;17.40;91.70
3190;DHT22;1606;51.946;10.558;2023-01-01T04:42:31;17.50;91.60
3190;DHT22;1606;51.946;10.558;2023-01-01T04:44:58;17.40;91.30
3190;DHT22;1606;51.946;10.558;2023-01-01T04:47:26;17.50;91.70
3190;DHT22;1606;51.946;10.558;2023-01-01T04:49:54;17.50;92.00
3190;DHT22;1606;51.946;10.558;2023-01-01T04:52:23;17.20;92.10
3190;DHT22;1606;51.946;10.558;2023-01-01T04:54:51;17.30;92.20
3190;DHT22;1606;51.946;10.558;2023-01-01T04:57:18;17.30;92.10
3190;DHT22;1606;51.946;10.558;2023-01-01T04:59:46;17.50;92.10
3190;DHT22;1606;51.946;10.558;2023-01-01T05:02:14;17.50;92.20
3190;DHT22;1606;51.946;10.558;2023-01-01T05:04:42;17.60;92.10
3190;DHT22;1606;51.946;10.558;2023-01-01T05:07:10;17.40;92.00
3190;DHT22;1606;51.946;10.558;2023-01-01T05:09:39;17.40;92.20
3190;DHT22;1606;51.946;10.558;2023-01-01T05:12:07;17.40;92.00
3190;DHT22;1606;51.946;10.558;2023-01-01T05:14:34;17.50;92.10
3190;DHT22;1606;51.946;10.558;2023-01-01T05:17:02;17.60;92.10
3190;DHT22;1606;51.946;10.558;2023-01-01T05:19:30;17.40;92.20
3190;DHT22;1606;51.946;10.558;2023-01-01T05:21:58;17.50;92.50
3190;DHT22;1606;51.946;10.558;2023-01-01T05:24:34;17.30;92.30
3190;DHT22;1606;51.946;10.558;2023-01-01T05:27:04;17.30;92.50
3190;DHT22;1606;51.946;10.558;2023-01-01T05:29:32;17.30;92.60
3190;DHT22;1606;51.946;10.558;2023-01-01T05:31:59;17.20;93.10
3190;DHT22;1606;51.946;10.558;2023-01-01T05:34:27;17.20;92.90
3190;DHT22;1606;51.946;10.558;2023-01-01T05:36:57;17.40;93.00
3190;DHT22;1606;51.946;10.558;2023-01-01T05:39:25;17.40;92.80
3190;DHT22;1606;51.946;10.558;2023-01-01T05:41:52;17.60;92.80
3190;DHT22;1606;51.946;10.558;2023-01-01T05:44:22;17.50;92.70
3190;DHT22;1606;51.946;10.558;2023-01-01T05:46:49;17.50;92.80
3190;DHT22;1606;51.946;10.558;2023-01-01T05:49:17;17.30;92.80
3190;DHT22;1606;51.946;10.558;2023-01-01T05:51:45;17.20;93.30
3190;DHT22;1606;51.946;10.558;2023-01-01T05:54:13;17.20;93.30
3190;DHT22;1606;51.946;10.558;2023-01-01T05:56:39;17.20;93.40
3190;DHT22;1606;51.946;10.558;2023-01-01T05:59:08;17.20;93.30
3190;DHT22;1606;51.946;10.558;2023-01-01T06:01:38;17.30;93.40
3190;DHT22;1606;51.946;10.558;2023-01-01T06:04:11;17.40;93.50
3190;DHT22;1606;51.946;10.558;2023-01-01T06:06:40;17.30;93.30
3190;DHT22;1606;51.946;10.558;2023-01-01T06:09:09;17.30;93.60
3190;DHT22;1606;51.946;10.558;2023-01-01T06:11:38;17.30;93.40
3190;DHT22;1606;51.946;10.558;2023-01-01T06:14:05;17.30;93.80
3190;DHT22;1606;51.946;10.558;2023-01-01T06:16:33;17.30;93.80
3190;DHT22;1606;51.946;10.558;2023-01-01T06:19:03;17.20;93.70
3190;DHT22;1606;51.946;10.558;2023-01-01T06:21:30;17.20;93.80
3190;DHT22;1606;51.946;10.558;2023-01-01T06:23:58;17.20;94.10
3190;DHT22;1606;51.946;10.558;2023-01-01T06:26:28;17.10;94.30
3190;DHT22;1606;51.946;10.558;2023-01-01T06:28:56;17.30;94.10
3190;DHT22;1606;51.946;10.558;2023-01-01T06:31:25;17.10;94.30
3190;DHT22;1606;51.946;10.558;2023-01-01T06:33:53;16.90;94.60
3190;DHT22;1606;51.946;10.558;2023-01-01T06:36:24;17.00;94.70
3190;DHT22;1606;51.946;10.558;2023-01-01T06:38:54;17.20;94.60
3190;DHT22;1606;51.946;10.558;2023-01-01T06:41:24;17.30;94.40
3190;DHT22;1606;51.946;10.558;2023-01-01T06:43:53;17.20;94.60
3190;DHT22;1606;51.946;10.558;2023-01-01T06:46:23;17.20;94.50
3190;DHT22;1606;51.946;10.558;2023-01-01T06:48:53;17.10;94.50
3190;DHT22;1606;51.946;10.558;2023-01-01T06:51:25;17.00;94.70
3190;DHT22;1606;51.946;10.558;2023-01-01T06:53:54;17.10;94.80
3190;DHT22;1606;51.946;10.558;2023-01-01T06:56:24;17.20;94.80
3190;DHT22;1606;51.946;10.558;2023-01-01T06:58:52;17.30;94.70
3190;DHT22;1606;51.946;10.558;2023-01-01T07:01:21;17.30;94.90
3190;DHT22;1606;51.946;10.558;2023-01-01T07:03:51;17.30;95.00
3190;DHT22;1606;51.946;10.558;2023-01-01T07:06:19;17.20;95.10
3190;DHT22;1606;51.946;10.558;2023-01-01T07:08:48;17.20;95.30
3190;DHT22;1606;51.946;10.558;2023-01-01T07:11:16;17.30;95.30
3190;DHT22;1606;51.946;10.558;2023-01-01T07:13:44;17.20;95.30
3190;DHT22;1606;51.946;10.558;2023-01-01T07:16:12;17.10;95.50
3190;DHT22;1606;51.946;10.558;2023-01-01T07:18:40;17.00;95.50
3190;DHT22;1606;51.946;10.558;2023-01-01T07:21:26;16.80;95.90
3190;DHT22;1606;51.946;10.558;2023-01-01T07:23:58;16.80;96.00
3190;DHT22;1606;51.946;10.558;2023-01-01T07:26:27;16.80;96.10
3190;DHT22;1606;51.946;10.558;2023-01-01T07:28:55;16.90;96.40
3190;DHT22;1606;51.946;10.558;2023-01-01T07:31:32;16.90;96.10
3190;DHT22;1606;51.946;10.558;2023-01-01T07:34:00;17.10;95.90
3190;DHT22;1606;51.946;10.558;2023-01-01T07:36:28;17.00;95.70
3190;DHT22;1606;51.946;10.558;2023-01-01T07:38:57;16.90;95.90
3190;DHT22;1606;51.946;10.558;2023-01-01T07:41:24;16.80;96.50
3190;DHT22;1606;51.946;10.558;2023-01-01T07:43:52;16.90;96.60
3190;DHT22;1606;51.946;10.558;2023-01-01T07:46:20;16.90;96.20
3190;DHT22;1606;51.946;10.558;2023-01-01T07:48:48;16.80;96.30
3190;DHT22;1606;51.946;10.558;2023-01-01T07:51:15;16.80;96.40
3190;DHT22;1606;51.946;10.558;2023-01-01T07:53:43;17.00;96.30
3190;DHT22;1606;51.946;10.558;2023-01-01T07:56:12;16.90;96.20
3190;DHT22;1606;51.946;10.558;2023-01-01T07:58:41;16.90;96.30
3190;DHT22;1606;51.946;10.558;2023-01-01T08:01:09;16.90;96.30
3190;DHT22;1606;51.946;10.558;2023-01-01T08:03:38;16.70;96.50
3190;DHT22;1606;51.946;10.558;2023-01-01T08:06:07;16.70;96.60
3190;DHT22;1606;51.946;10.558;2023-01-01T08:08:35;16.80;96.60
3190;DHT22;1606;51.946;10.558;2023-01-01T08:11:03;17.00;96.50
3190;DHT22;1606;51.946;10.558;2023-01-01T08:13:33;17.10;96.30
3190;DHT22;1606;51.946;10.558;2023-01-01T08:16:00;17.00;96.50
3190;DHT22;1606;51.946;10.558;2023-01-01T08:18:28;17.00;96.40
3190;DHT22;1606;51.946;10.558;2023-01-01T08:20:56;16.80;96.80
3190;DHT22;1606;51.946;10.558;2023-01-01T08:23:24;16.60;96.80
3190;DHT22;1606;51.946;10.558;2023-01-01T08:25:51;16.50;96.90
3190;DHT22;1606;51.946;10.558;2023-01-01T08:28:19;16.70;97.20
3190;DHT22;1606;51.946;10.558;2023-01-01T08:30:48;16.70;96.90
3190;DHT22;1606;51.946;10.558;2023-01-01T08:33:16;16.80;96.80
3190;DHT22;1606;51.946;10.558;2023-01-01T08:35:44;17.00;96.70
3190;DHT22;1606;51.946;10.558;2023-01-01T08:38:19;16.90;96.70
3190;DHT22;1606;51.946;10.558;2023-01-01T08:40:47;16.90;96.40
3190;DHT22;1606;51.946;10.558;2023-01-01T08:43:15;16.80;96.70
3190;DHT22;1606;51.946;10.558;2023-01-01T08:45:43;16.70;96.70
3190;DHT22;1606;51.946;10.558;2023-01-01T08:48:12;16.70;96.80
3190;DHT22;1606;51.946;10.558;2023-01-01T08:50:40;16.80;96.90
3190;DHT22;1606;51.946;10.558;2023-01-01T08:53:07;17.00;96.80
3190;DHT22;1606;51.946;10.558;2023-01-01T08:55:35;17.10;96.70
3190;DHT22;1606;51.946;10.558;2023-01-01T08:58:04;16.90;96.50
3190;DHT22;1606;51.946;10.558;2023-01-01T09:00:32;16.60;96.80
3190;DHT22;1606;51.946;10.558;2023-01-01T09:03:00;16.70;97.30
3190;DHT22;1606;51.946;10.558;2023-01-01T09:05:30;16.90;97.10
3190;DHT22;1606;51.946;10.558;2023-01-01T09:07:57;17.00;96.90
3190;DHT22;1606;51.946;10.558;2023-01-01T09:10:25;17.00;96.90
3190;DHT22;1606;51.946;10.558;2023-01-01T09:12:53;16.90;96.90
3190;DHT22;1606;51.946;10.558;2023-01-01T09:15:21;17.00;96.80
3190;DHT22;1606;51.946;10.558;2023-01-01T09:17:48;17.10;96.50
3190;DHT22;1606;51.946;10.558;2023-01-01T09:20:16;16.90;96.60
3190;DHT22;1606;51.946;10.558;2023-01-01T09:22:45;17.10;96.80
3190;DHT22;1606;51.946;10.558;2023-01-01T09:25:13;17.10;96.40
3190;DHT22;1606;51.946;10.558;2023-01-01T09:27:41;17.00;96.60
3190;DHT22;1606;51.946;10.558;2023-01-01T09:30:09;17.10;96.50
3190;DHT22;1606;51.946;10.558;2023-01-01T09:32:38;17.20;96.40
3190;DHT22;1606;51.946;10.558;2023-01-01T09:35:06;17.40;96.20
3190;DHT22;1606;51.946;10.558;2023-01-01T09:37:34;17.40;96.20
3190;DHT22;1606;51.946;10.558;2023-01-01T09:40:03;17.50;96.00
3190;DHT22;1606;51.946;10.558;2023-01-01T09:42:37;17.50;96.20
3190;DHT22;1606;51.946;10.558;2023-01-01T09:45:17;17.50;95.90
3190;DHT22;1606;51.946;10.558;2023-01-01T09:47:50;17.40;96.40
3190;DHT22;1606;51.946;10.558;2023-01-01T09:50:21;17.30;96.70
3190;DHT22;1606;51.946;10.558;2023-01-01T09:52:53;17.40;97.00
3190;DHT22;1606;51.946;10.558;2023-01-01T09:55:26;17.40;96.80
3190;DHT22;1606;51.946;10.558;2023-01-01T09:57:55;17.30;96.70
3190;DHT22;1606;51.946;10.558;2023-01-01T10:00:23;17.10;96.80
3190;DHT22;1606;51.946;10.558;2023-01-01T10:03:02;17.00;97.10
3190;DHT22;1606;51.946;10.558;2023-01-01T10:05:40;17.10;97.40
3190;DHT22;1606;51.946;10.558;2023-01-01T10:08:22;17.20;97.10
3190;DHT22;1606;51.946;10.558;2023-01-01T10:11:03;17.20;97.30
3190;DHT22;1606;51.946;10.558;2023-01-01T10:13:36;17.00;97.80
3190;DHT22;1606;51.946;10.558;2023-01-01T10:16:10;17.20;97.30
3190;DHT22;1606;51.946;10.558;2023-01-01T10:18:39;17.20;96.80
3190;DHT22;1606;51.946;10.558;2023-01-01T10:21:12;17.20;96.90
3190;DHT22;1606;51.946;10.558;2023-01-01T10:23:43;17.20;97.10
3190;DHT22;1606;51.946;10.558;2023-01-01T10:26:18;17.50;96.90
3190;DHT22;1606;51.946;10.558;2023-01-01T10:28:53;17.40;96.50
3190;DHT22;1606;51.946;10.558;2023-01-01T10:31:29;17.30;96.60
3190;DHT22;1606;51.946;10.558;2023-01-01T10:33:57;17.50;96.30
3190;DHT22;1606;51.946;10.558;2023-01-01T10:36:26;17.30;96.10
3190;DHT22;1606;51.946;10.558;2023-01-01T10:38:53;17.00;96.60
3190;DHT22;1606;51.946;10.558;2023-01-01T10:41:23;17.10;96.80
3190;DHT22;1606;51.946;10.558;2023-01-01T10:43:51;17.20;96.80
3190;DHT22;1606;51.946;10.558;2023-01-01T10:46:21;17.20;96.90
3190;DHT22;1606;51.946;10.558;2023-01-01T10:49:08;17.50;96.70
3190;DHT22;1606;51.946;10.558;2023-01-01T10:51:41;17.50;96.40
3190;DHT22;1606;51.946;10.558;2023-01-01T10:54:25;17.30;96.80
3190;DHT22;1606;51.946;10.558;2023-01-01T10:56:59;17.30;96.40
3190;DHT22;1606;51.946;10.558;2023-01-01T10:59:40;17.30;96.70
3190;DHT22;1606;51.946;10.558;2023-01-01T11:02:18;17.30;96.40
3190;DHT22;1606;51.946;10.558;2023-01-01T11:04:48;17.20;96.80
3190;DHT22;1606;51.946;10.558;2023-01-01T11:07:20;17.40;96.80
3190;DHT22;1606;51.946;10.558;2023-01-01T11:09:50;17.30;96.10
3190;DHT22;1606;51.946;10.558;2023-01-01T11:12:34;17.30;96.30
3190;DHT22;1606;51.946;10.558;2023-01-01T11:15:25;17.20;96.40
3190;DHT22;1606;51.946;10.558;2023-01-01T11:18:03;17.30;96.40
3190;DHT22;1606;51.946;10.558;2023-01-01T11:20:32;17.50;96.40
3190;DHT22;1606;51.946;10.558;2023-01-01T11:23:17;17.70;96.40
3190;DHT22;1606;51.946;10.558;2023-01-01T11:26:03;17.40;96.10
3190;DHT22;1606;51.946;10.558;2023-01-01T11:28:34;17.30;96.60
3190;DHT22;1606;51.946;10.558;2023-01-01T11:31:11;17.20;96.80
3190;DHT22;1606;51.946;10.558;2023-01-01T11:33:44;17.40;96.60
3190;DHT22;1606;51.946;10.558;2023-01-01T11:36:20;17.50;96.70
3190;DHT22;1606;51.946;10.558;2023-01-01T11:38:50;17.50;96.40
3190;DHT22;1606;51.946;10.558;2023-01-01T11:41:20;17.40;96.60
3190;DHT22;1606;51.946;10.558;2023-01-01T11:43:50;17.20;96.60
3190;DHT22;1606;51.946;10.558;2023-01-01T11:46:22;17.30;97.00
3190;DHT22;1606;51.946;10.558;2023-01-01T11:48:52;17.20;96.80
3190;DHT22;1606;51.946;10.558;2023-01-01T11:51:29;17.20;97.10
3190;DHT22;1606;51.946;10.558;2023-01-01T11:54:09;17.10;96.90
3190;DHT22;1606;51.946;10.558;2023-01-01T11:56:38;17.30;97.40
3190;DHT22;1606;51.946;10.558;2023-01-01T11:59:13;17.10;97.10
3190;DHT22;1606;51.946;10.558;2023-01-01T12:01:46;17.10;97.00
3190;DHT22;1606;51.946;10.558;2023-01-01T12:04:17;17.10;97.10
3190;DHT22;1606;51.946;10.558;2023-01-01T12:06:49;17.10;97.20
3190;DHT22;1606;51.946;10.558;2023-01-01T12:09:23;17.30;97.10
3190;DHT22;1606;51.946;10.558;2023-01-01T12:11:59;17.40;97.00
3190;DHT22;1606;51.946;10.558;2023-01-01T12:14:38;17.30;96.80
3190;DHT22;1606;51.946;10.558;2023-01-01T12:17:13;17.10;97.10
3190;DHT22;1606;51.946;10.558;2023-01-01T12:19:47;17.10;97.10
3190;DHT22;1606;51.946;10.558;2023-01-01T12:22:18;17.20;97.30
3190;DHT22;1606;51.946;10.558;2023-01-01T12:24:47;17.20;97.40
3190;DHT22;1606;51.946;10.558;2023-01-01T12:27:17;17.30;97.00
3190;DHT22;1606;51.946;10.558;2023-01-01T12:30:00;17.10;97.20
3190;DHT22;1606;51.946;10.558;2023-01-01T12:32:41;17.00;97.60
3190;DHT22;1606;51.946;10.558;2023-01-01T12:35:20;17.30;96.90
3190;DHT22;1606;51.946;10.558;2023-01-01T12:38:00;17.00;97.20
3190;DHT22;1606;51.946;10.558;2023-01-01T12:40:38;17.00;97.40
3190;DHT22;1606;51.946;10.558;2023-01-01T12:43:09;17.10;97.20
3190;DHT22;1606;51.946;10.558;2023-01-01T12:45:52;16.90;97.00
3190;DHT22;1606;51.946;10.558;2023-01-01T12:48:57;16.90;97.40
3190;DHT22;1606;51.946;10.558;2023-01-01T12:51:33;16.70;97.80
3190;DHT22;1606;51.946;10.558;2023-01-01T12:54:17;16.70;97.80
3190;DHT22;1606;51.946;10.558;2023-01-01T12:56:58;16.90;97.80
3190;DHT22;1606;51.946;10.558;2023-01-01T12:59:31;16.80;97.60
3190;DHT22;1606;51.946;10.558;2023-01-01T13:02:02;16.80;98.00
3190;DHT22;1606;51.946;10.558;2023-01-01T13:04:37;16.70;97.70
3190;DHT22;1606;51.946;10.558;2023-01-01T13:07:07;16.70;98.00
3190;DHT22;1606;51.946;10.558;2023-01-01T13:09:38;16.80;97.90
3190;DHT22;1606;51.946;10.558;2023-01-01T13:12:11;17.00;97.90
3190;DHT22;1606;51.946;10.558;2023-01-01T13:14:40;17.10;97.60
3190;DHT22;1606;51.946;10.558;2023-01-01T13:17:18;17.30;97.20
3190;DHT22;1606;51.946;10.558;2023-01-01T13:19:47;17.30;97.10
3190;DHT22;1606;51.946;10.558;2023-01-01T13:22:37;17.20;97.20
3190;DHT22;1606;51.946;10.558;2023-01-01T13:25:25;17.20;97.80
3190;DHT22;1606;51.946;10.558;2023-01-01T13:28:04;17.10;97.30
3190;DHT22;1606;51.946;10.558;2023-01-01T13:30:50;17.20;97.40
3190;DHT22;1606;51.946;10.558;2023-01-01T13:33:22;17.20;97.00
3190;DHT22;1606;51.946;10.558;2023-01-01T13:36:29;16.90;97.30
3190;DHT22;1606;51.946;10.558;2023-01-01T13:38:57;17.20;97.20
3190;DHT22;1606;51.946;10.558;2023-01-01T13:41:38;17.40;97.10
3190;DHT22;1606;51.946;10.558;2023-01-01T13:44:21;17.30;96.90
3190;DHT22;1606;51.946;10.558;2023-01-01T13:47:09;17.10;97.30
3190;DHT22;1606;51.946;10.558;2023-01-01T13:49:59;17.10;97.60
3190;DHT22;1606;51.946;10.558;2023-01-01T13:52:48;17.30;97.60
3190;DHT22;1606;51.946;10.558;2023-01-01T13:55:56;17.40;97.40
3190;DHT22;1606;51.946;10.558;2023-01-01T13:59:03;17.30;97.40
3190;DHT22;1606;51.946;10.558;2023-01-01T14:01:42;17.10;97.40
3190;DHT22;1606;51.946;10.558;2023-01-01T14:04:22;17.20;97.60
3190;DHT22;1606;51.946;10.558;2023-01-01T14:06:58;17.30;97.20
3190;DHT22;1606;51.946;10.558;2023-01-01T14:09:47;17.30;97.30
3190;DHT22;1606;51.946;10.558;2023-01-01T14:12:16;17.20;97.20
3190;DHT22;1606;51.946;10.558;2023-01-01T14:14:44;17.30;97.30
3190;DHT22;1606;51.946;10.558;2023-01-01T14:17:13;17.40;97.10
3190;DHT22;1606;51.946;10.558;2023-01-01T14:19:42;17.30;97.30
3190;DHT22;1606;51.946;10.558;2023-01-01T14:22:14;17.50;97.20
3190;DHT22;1606;51.946;10.558;2023-01-01T14:24:45;17.60;96.90
3190;DHT22;1606;51.946;10.558;2023-01-01T14:27:19;17.40;96.70
3190;DHT22;1606;51.946;10.558;2023-01-01T14:29:49;17.50;96.90
3190;DHT22;1606;51.946;10.558;2023-01-01T14:32:22;17.50;97.00
3190;DHT22;1606;51.946;10.558;2023-01-01T14:34:58;17.40;96.90
3190;DHT22;1606;51.946;10.558;2023-01-01T14:37:27;17.30;97.20
3190;DHT22;1606;51.946;10.558;2023-01-01T14:40:14;17.30;97.30
3190;DHT22;1606;51.946;10.558;2023-01-01T14:42:43;17.30;97.30
3190;DHT22;1606;51.946;10.558;2023-01-01T14:45:14;17.20;97.40
3190;DHT22;1606;51.946;10.558;2023-01-01T14:47:45;17.00;97.70
3190;DHT22;1606;51.946;10.558;2023-01-01T14:50:19;17.00;97.80
3190;DHT22;1606;51.946;10.558;2023-01-01T14:52:54;17.10;97.80
3190;DHT22;1606;51.946;10.558;2023-01-01T14:55:32;17.10;97.60
3190;DHT22;1606;51.946;10.558;2023-01-01T14:58:01;17.00;97.80
3190;DHT22;1606;51.946;10.558;2023-01-01T15:00:31;17.10;97.70
3190;DHT22;1606;51.946;10.558;2023-01-01T15:03:11;17.20;97.70
3190;DHT22;1606;51.946;10.558;2023-01-01T15:05:40;17.20;97.90
3190;DHT22;1606;51.946;10.558;2023-01-01T15:08:19;17.20;97.80
3190;DHT22;1606;51.946;10.558;2023-01-01T15:10:48;17.30;97.60
3190;DHT22;1606;51.946;10.558;2023-01-01T15:13:18;17.30;97.60
3190;DHT22;1606;51.946;10.558;2023-01-01T15:15:48;17.20;97.60
3190;DHT22;1606;51.946;10.558;2023-01-01T15:18:39;17.00;97.90
3190;DHT22;1606;51.946;10.558;2023-01-01T15:21:14;17.00;97.90
3190;DHT22;1606;51.946;10.558;2023-01-01T15:23:50;16.80;98.20
3190;DHT22;1606;51.946;10.558;2023-01-01T15:26:27;16.80;98.40
3190;DHT22;1606;51.946;10.558;2023-01-01T15:29:05;17.00;98.20
3190;DHT22;1606;51.946;10.558;2023-01-01T15:31:38;16.90;98.20
3190;DHT22;1606;51.946;10.558;2023-01-01T15:34:19;17.00;98.40
3190;DHT22;1606;51.946;10.558;2023-01-01T15:36:48;16.80;98.40
3190;DHT22;1606;51.946;10.558;2023-01-01T15:39:17;16.90;98.40
3190;DHT22;1606;51.946;10.558;2023-01-01T15:41:47;16.90;98.70
3190;DHT22;1606;51.946;10.558;2023-01-01T15:44:18;16.90;98.40
3190;DHT22;1606;51.946;10.558;2023-01-01T15:46:49;16.90;98.50
3190;DHT22;1606;51.946;10.558;2023-01-01T15:49:22;16.80;98.50
3190;DHT22;1606;51.946;10.558;2023-01-01T15:51:52;16.70;98.80
3190;DHT22;1606;51.946;10.558;2023-01-01T15:54:26;16.70;98.90
3190;DHT22;1606;51.946;10.558;2023-01-01T15:56:56;16.60;99.00
3190;DHT22;1606;51.946;10.558;2023-01-01T15:59:27;16.60;99.00
3190;DHT22;1606;51.946;10.558;2023-01-01T16:02:12;16.50;99.00
3190;DHT22;1606;51.946;10.558;2023-01-01T16:04:44;16.20;99.60
3190;DHT22;1606;51.946;10.558;2023-01-01T16:07:17;16.30;99.70
3190;DHT22;1606;51.946;10.558;2023-01-01T16:09:48;16.60;99.50
3190;DHT22;1606;51.946;10.558;2023-01-01T16:12:23;16.40;99.50
3190;DHT22;1606;51.946;10.558;2023-01-01T16:14:51;16.40;99.60
3190;DHT22;1606;51.946;10.558;2023-01-01T16:17:20;16.50;99.30
3190;DHT22;1606;51.946;10.558;2023-01-01T16:19:47;16.50;99.60